Zion, Virginia
Current Conditions -  °F | °C
As of 5:15 PM on Thursday 23 Oct 2014 (Local Time) from KGVE Reporting Station
Clear Clear  
Wind Chill: 64°   Ceiling: Unl
Heat Index: 64°   Visibility: 10mi
Dew Point: 44°   Wind: 3mph
Humidity: 48%   Direction: 340°NNW
Pressure: 29.91"   Gusts: NA
Location:  38.0919°N, 78.1851°W
Report Text: KGVE 232115Z AUTO 34003KT 10SM CLR 18/07 A2991 RMK AO1 P0001 T01750065
Loading
Personal Weather Stations






























Interactive Weather Map
Tropical Storm Tracking
New forecast layout! Learn more

10-Day Weather Forecast

Advertisements
Track Severe Weather on mobile